<?xml version="1.0" encoding="UTF-8" standalone="no" ?>
<gpx xmlns="http://www.topografix.com/GPX/1/1" xmlns:xsi="http://www.w3.org/2001/XMLSchema-instance" xsi:schemaLocation="http://www.topografix.com/GPX/1/1 http://www.topografix.com/GPX/1/1/gpx.xsd" version="1.1" creator="VisuGPX - https://www.visugpx.com">
  <metadata>
    <name>Rando LN</name>
  </metadata>
  <trk>
    <name><![CDATA[Champerboux]]></name>
    <extensions>
      <line xmlns="http://www.topografix.com/GPX/gpx_style/0/2">
        <color>0000FF</color>
        <width>4</width>
      </line>
    </extensions>
    <trkseg>
      <trkpt lat="44.43944" lon="3.30292">
        <ele>853.495</ele>
        <time>2019-07-07T17:39:10Z</time>
      </trkpt>
      <trkpt lat="44.43944" lon="3.30292">
        <ele>853.495</ele>
        <time>2019-07-07T17:39:10Z</time>
      </trkpt>
      <trkpt lat="44.43944" lon="3.30292">
        <ele>853.495</ele>
        <time>2019-07-07T17:39:10Z</time>
      </trkpt>
      <trkpt lat="44.43938" lon="3.30383">
        <ele>860.899</ele>
        <time>2019-07-07T17:39:30Z</time>
      </trkpt>
      <trkpt lat="44.43949" lon="3.30421">
        <ele>864.186</ele>
        <time>2019-07-07T17:39:50Z</time>
      </trkpt>
      <trkpt lat="44.43968" lon="3.30449">
        <ele>864.085</ele>
        <time>2019-07-07T17:40:10Z</time>
      </trkpt>
      <trkpt lat="44.43946" lon="3.30514">
        <ele>866.461</ele>
        <time>2019-07-07T17:40:30Z</time>
      </trkpt>
      <trkpt lat="44.43949" lon="3.3057">
        <ele>867.339</ele>
        <time>2019-07-07T17:40:50Z</time>
      </trkpt>
      <trkpt lat="44.43925" lon="3.30716">
        <ele>874.701</ele>
        <time>2019-07-07T17:41:10Z</time>
      </trkpt>
      <trkpt lat="44.43894" lon="3.30733">
        <ele>877.921</ele>
        <time>2019-07-07T17:41:30Z</time>
      </trkpt>
      <trkpt lat="44.43865" lon="3.3074">
        <ele>882.208</ele>
        <time>2019-07-07T17:41:50Z</time>
      </trkpt>
      <trkpt lat="44.4381" lon="3.30768">
        <ele>883.587</ele>
        <time>2019-07-07T17:42:10Z</time>
      </trkpt>
      <trkpt lat="44.4378" lon="3.30886">
        <ele>881.131</ele>
        <time>2019-07-07T17:42:30Z</time>
      </trkpt>
      <trkpt lat="44.43718" lon="3.3111">
        <ele>889.015</ele>
        <time>2019-07-07T17:42:50Z</time>
      </trkpt>
      <trkpt lat="44.43691" lon="3.31157">
        <ele>889.562</ele>
        <time>2019-07-07T17:43:10Z</time>
      </trkpt>
      <trkpt lat="44.43631" lon="3.31317">
        <ele>882.376</ele>
        <time>2019-07-07T17:43:30Z</time>
      </trkpt>
      <trkpt lat="44.43597" lon="3.31383">
        <ele>876.873</ele>
        <time>2019-07-07T17:43:50Z</time>
      </trkpt>
      <trkpt lat="44.43571" lon="3.31403">
        <ele>874.132</ele>
        <time>2019-07-07T17:44:10Z</time>
      </trkpt>
      <trkpt lat="44.43577" lon="3.31439">
        <ele>873.468</ele>
        <time>2019-07-07T17:44:30Z</time>
      </trkpt>
      <trkpt lat="44.43577" lon="3.3162">
        <ele>872.769</ele>
        <time>2019-07-07T17:44:50Z</time>
      </trkpt>
      <trkpt lat="44.43595" lon="3.31654">
        <ele>871.104</ele>
        <time>2019-07-07T17:45:10Z</time>
      </trkpt>
      <trkpt lat="44.43647" lon="3.31659">
        <ele>866.624</ele>
        <time>2019-07-07T17:45:30Z</time>
      </trkpt>
      <trkpt lat="44.43691" lon="3.31696">
        <ele>861.308</ele>
        <time>2019-07-07T17:45:50Z</time>
      </trkpt>
      <trkpt lat="44.43713" lon="3.31738">
        <ele>858.79</ele>
        <time>2019-07-07T17:46:10Z</time>
      </trkpt>
      <trkpt lat="44.43758" lon="3.31786">
        <ele>856.114</ele>
        <time>2019-07-07T17:46:30Z</time>
      </trkpt>
      <trkpt lat="44.43774" lon="3.3184">
        <ele>853.338</ele>
        <time>2019-07-07T17:46:50Z</time>
      </trkpt>
      <trkpt lat="44.43778" lon="3.31908">
        <ele>852.655</ele>
        <time>2019-07-07T17:47:10Z</time>
      </trkpt>
      <trkpt lat="44.43797" lon="3.31945">
        <ele>851.099</ele>
        <time>2019-07-07T17:47:30Z</time>
      </trkpt>
      <trkpt lat="44.43848" lon="3.32018">
        <ele>845.836</ele>
        <time>2019-07-07T17:47:50Z</time>
      </trkpt>
      <trkpt lat="44.43905" lon="3.32109">
        <ele>843.795</ele>
        <time>2019-07-07T17:48:10Z</time>
      </trkpt>
      <trkpt lat="44.43942" lon="3.32145">
        <ele>838.921</ele>
        <time>2019-07-07T17:48:30Z</time>
      </trkpt>
      <trkpt lat="44.44032" lon="3.32167">
        <ele>833.973</ele>
        <time>2019-07-07T17:48:50Z</time>
      </trkpt>
      <trkpt lat="44.4413" lon="3.3224">
        <ele>829.085</ele>
        <time>2019-07-07T17:49:10Z</time>
      </trkpt>
      <trkpt lat="44.44076" lon="3.32332">
        <ele>826.913</ele>
        <time>2019-07-07T17:49:30Z</time>
      </trkpt>
      <trkpt lat="44.44025" lon="3.32526">
        <ele>835.908</ele>
        <time>2019-07-07T17:49:50Z</time>
      </trkpt>
      <trkpt lat="44.44017" lon="3.32604">
        <ele>849.051</ele>
        <time>2019-07-07T17:50:10Z</time>
      </trkpt>
      <trkpt lat="44.44004" lon="3.32655">
        <ele>851.755</ele>
        <time>2019-07-07T17:50:30Z</time>
      </trkpt>
      <trkpt lat="44.44001" lon="3.32759">
        <ele>852.329</ele>
        <time>2019-07-07T17:50:50Z</time>
      </trkpt>
      <trkpt lat="44.4402" lon="3.3283">
        <ele>851.096</ele>
        <time>2019-07-07T17:51:10Z</time>
      </trkpt>
      <trkpt lat="44.44016" lon="3.32903">
        <ele>845.37</ele>
        <time>2019-07-07T17:51:30Z</time>
      </trkpt>
      <trkpt lat="44.4398" lon="3.33028">
        <ele>833.577</ele>
        <time>2019-07-07T17:51:50Z</time>
      </trkpt>
      <trkpt lat="44.4398" lon="3.3306">
        <ele>832.736</ele>
        <time>2019-07-07T17:52:10Z</time>
      </trkpt>
      <trkpt lat="44.43906" lon="3.33234">
        <ele>840.742</ele>
        <time>2019-07-07T17:52:30Z</time>
      </trkpt>
      <trkpt lat="44.43873" lon="3.33262">
        <ele>843.561</ele>
        <time>2019-07-07T17:52:50Z</time>
      </trkpt>
      <trkpt lat="44.43861" lon="3.33329">
        <ele>841.421</ele>
        <time>2019-07-07T17:53:10Z</time>
      </trkpt>
      <trkpt lat="44.43801" lon="3.33387">
        <ele>847.613</ele>
        <time>2019-07-07T17:53:30Z</time>
      </trkpt>
      <trkpt lat="44.43754" lon="3.33456">
        <ele>853.508</ele>
        <time>2019-07-07T17:53:50Z</time>
      </trkpt>
      <trkpt lat="44.43658" lon="3.33611">
        <ele>865.71</ele>
        <time>2019-07-07T17:54:10Z</time>
      </trkpt>
      <trkpt lat="44.43554" lon="3.33695">
        <ele>873.114</ele>
        <time>2019-07-07T17:54:30Z</time>
      </trkpt>
      <trkpt lat="44.43461" lon="3.33675">
        <ele>873.938</ele>
        <time>2019-07-07T17:54:50Z</time>
      </trkpt>
      <trkpt lat="44.43423" lon="3.33686">
        <ele>874.025</ele>
        <time>2019-07-07T17:55:10Z</time>
      </trkpt>
      <trkpt lat="44.43361" lon="3.33768">
        <ele>877.389</ele>
        <time>2019-07-07T17:55:30Z</time>
      </trkpt>
      <trkpt lat="44.43291" lon="3.33897">
        <ele>878.316</ele>
        <time>2019-07-07T17:55:50Z</time>
      </trkpt>
      <trkpt lat="44.43275" lon="3.3397">
        <ele>881.795</ele>
        <time>2019-07-07T17:56:10Z</time>
      </trkpt>
      <trkpt lat="44.43282" lon="3.34028">
        <ele>883.721</ele>
        <time>2019-07-07T17:56:30Z</time>
      </trkpt>
      <trkpt lat="44.43246" lon="3.34157">
        <ele>885.533</ele>
        <time>2019-07-07T17:56:50Z</time>
      </trkpt>
      <trkpt lat="44.43175" lon="3.34248">
        <ele>893.023</ele>
        <time>2019-07-07T17:57:10Z</time>
      </trkpt>
      <trkpt lat="44.4307" lon="3.34327">
        <ele>896.115</ele>
        <time>2019-07-07T17:57:30Z</time>
      </trkpt>
      <trkpt lat="44.43043" lon="3.34409">
        <ele>897.408</ele>
        <time>2019-07-07T17:57:50Z</time>
      </trkpt>
      <trkpt lat="44.43039" lon="3.34504">
        <ele>898.237</ele>
        <time>2019-07-07T17:58:10Z</time>
      </trkpt>
      <trkpt lat="44.43023" lon="3.34596">
        <ele>902.141</ele>
        <time>2019-07-07T17:58:30Z</time>
      </trkpt>
      <trkpt lat="44.43025" lon="3.34631">
        <ele>903.555</ele>
        <time>2019-07-07T17:58:50Z</time>
      </trkpt>
      <trkpt lat="44.42985" lon="3.34667">
        <ele>903.082</ele>
        <time>2019-07-07T17:59:10Z</time>
      </trkpt>
      <trkpt lat="44.4289" lon="3.34762">
        <ele>911.356</ele>
        <time>2019-07-07T17:59:30Z</time>
      </trkpt>
      <trkpt lat="44.42834" lon="3.34859">
        <ele>915.863</ele>
        <time>2019-07-07T17:59:50Z</time>
      </trkpt>
      <trkpt lat="44.42783" lon="3.34885">
        <ele>916.052</ele>
        <time>2019-07-07T18:00:10Z</time>
      </trkpt>
      <trkpt lat="44.42647" lon="3.34883">
        <ele>919.538</ele>
        <time>2019-07-07T18:00:30Z</time>
      </trkpt>
      <trkpt lat="44.42527" lon="3.34863">
        <ele>922.194</ele>
        <time>2019-07-07T18:00:50Z</time>
      </trkpt>
      <trkpt lat="44.424" lon="3.34962">
        <ele>924.257</ele>
        <time>2019-07-07T18:01:10Z</time>
      </trkpt>
      <trkpt lat="44.42335" lon="3.35031">
        <ele>920.922</ele>
        <time>2019-07-07T18:01:30Z</time>
      </trkpt>
      <trkpt lat="44.42271" lon="3.35124">
        <ele>920.908</ele>
        <time>2019-07-07T18:01:50Z</time>
      </trkpt>
      <trkpt lat="44.42224" lon="3.35315">
        <ele>923.353</ele>
        <time>2019-07-07T18:02:10Z</time>
      </trkpt>
      <trkpt lat="44.42253" lon="3.35369">
        <ele>926.197</ele>
        <time>2019-07-07T18:02:30Z</time>
      </trkpt>
      <trkpt lat="44.42248" lon="3.35427">
        <ele>928.481</ele>
        <time>2019-07-07T18:02:50Z</time>
      </trkpt>
      <trkpt lat="44.42207" lon="3.35565">
        <ele>931.468</ele>
        <time>2019-07-07T18:03:10Z</time>
      </trkpt>
      <trkpt lat="44.42135" lon="3.3567">
        <ele>930.912</ele>
        <time>2019-07-07T18:03:30Z</time>
      </trkpt>
      <trkpt lat="44.42047" lon="3.3569">
        <ele>930.369</ele>
        <time>2019-07-07T18:03:50Z</time>
      </trkpt>
      <trkpt lat="44.42012" lon="3.35862">
        <ele>927.938</ele>
        <time>2019-07-07T18:04:10Z</time>
      </trkpt>
      <trkpt lat="44.41939" lon="3.36129">
        <ele>923.894</ele>
        <time>2019-07-07T18:04:30Z</time>
      </trkpt>
      <trkpt lat="44.41884" lon="3.36236">
        <ele>924.584</ele>
        <time>2019-07-07T18:04:50Z</time>
      </trkpt>
      <trkpt lat="44.41839" lon="3.3631">
        <ele>928.207</ele>
        <time>2019-07-07T18:05:10Z</time>
      </trkpt>
      <trkpt lat="44.41817" lon="3.36333">
        <ele>928.417</ele>
        <time>2019-07-07T18:05:30Z</time>
      </trkpt>
      <trkpt lat="44.41775" lon="3.36426">
        <ele>928.808</ele>
        <time>2019-07-07T18:05:50Z</time>
      </trkpt>
      <trkpt lat="44.41673" lon="3.36619">
        <ele>927.692</ele>
        <time>2019-07-07T18:06:10Z</time>
      </trkpt>
      <trkpt lat="44.4153" lon="3.36755">
        <ele>925.326</ele>
        <time>2019-07-07T18:06:30Z</time>
      </trkpt>
      <trkpt lat="44.41544" lon="3.3683">
        <ele>926.42</ele>
        <time>2019-07-07T18:06:50Z</time>
      </trkpt>
      <trkpt lat="44.41529" lon="3.36981">
        <ele>925.737</ele>
        <time>2019-07-07T18:07:10Z</time>
      </trkpt>
      <trkpt lat="44.41522" lon="3.37127">
        <ele>923.761</ele>
        <time>2019-07-07T18:07:30Z</time>
      </trkpt>
      <trkpt lat="44.41488" lon="3.37366">
        <ele>922.398</ele>
        <time>2019-07-07T18:07:50Z</time>
      </trkpt>
      <trkpt lat="44.41468" lon="3.37435">
        <ele>922.477</ele>
        <time>2019-07-07T18:08:10Z</time>
      </trkpt>
      <trkpt lat="44.41428" lon="3.37622">
        <ele>930.143</ele>
        <time>2019-07-07T18:08:30Z</time>
      </trkpt>
      <trkpt lat="44.41364" lon="3.37812">
        <ele>928.212</ele>
        <time>2019-07-07T18:08:50Z</time>
      </trkpt>
      <trkpt lat="44.41341" lon="3.38051">
        <ele>925.132</ele>
        <time>2019-07-07T18:09:10Z</time>
      </trkpt>
      <trkpt lat="44.41258" lon="3.38395">
        <ele>928.805</ele>
        <time>2019-07-07T18:09:30Z</time>
      </trkpt>
      <trkpt lat="44.41239" lon="3.38576">
        <ele>930.508</ele>
        <time>2019-07-07T18:09:50Z</time>
      </trkpt>
      <trkpt lat="44.41223" lon="3.38722">
        <ele>928.045</ele>
        <time>2019-07-07T18:10:10Z</time>
      </trkpt>
      <trkpt lat="44.41234" lon="3.38823">
        <ele>930.819</ele>
        <time>2019-07-07T18:10:30Z</time>
      </trkpt>
      <trkpt lat="44.41258" lon="3.39006">
        <ele>932.573</ele>
        <time>2019-07-07T18:10:50Z</time>
      </trkpt>
      <trkpt lat="44.41245" lon="3.39148">
        <ele>929.85</ele>
        <time>2019-07-07T18:11:10Z</time>
      </trkpt>
      <trkpt lat="44.41255" lon="3.39219">
        <ele>930.054</ele>
        <time>2019-07-07T18:11:30Z</time>
      </trkpt>
      <trkpt lat="44.41226" lon="3.39473">
        <ele>937.331</ele>
        <time>2019-07-07T18:11:50Z</time>
      </trkpt>
      <trkpt lat="44.41242" lon="3.39639">
        <ele>936.44</ele>
        <time>2019-07-07T18:12:10Z</time>
      </trkpt>
      <trkpt lat="44.41214" lon="3.39817">
        <ele>940.256</ele>
        <time>2019-07-07T18:12:30Z</time>
      </trkpt>
      <trkpt lat="44.41223" lon="3.39899">
        <ele>937.048</ele>
        <time>2019-07-07T18:12:50Z</time>
      </trkpt>
      <trkpt lat="44.41211" lon="3.40065">
        <ele>926.661</ele>
        <time>2019-07-07T18:13:10Z</time>
      </trkpt>
      <trkpt lat="44.41186" lon="3.40116">
        <ele>926.217</ele>
        <time>2019-07-07T18:13:30Z</time>
      </trkpt>
      <trkpt lat="44.41169" lon="3.40226">
        <ele>929.208</ele>
        <time>2019-07-07T18:13:50Z</time>
      </trkpt>
      <trkpt lat="44.41166" lon="3.40405">
        <ele>930.398</ele>
        <time>2019-07-07T18:14:10Z</time>
      </trkpt>
      <trkpt lat="44.41175" lon="3.40534">
        <ele>930.662</ele>
        <time>2019-07-07T18:14:30Z</time>
      </trkpt>
      <trkpt lat="44.41159" lon="3.40695">
        <ele>934.796</ele>
        <time>2019-07-07T18:14:50Z</time>
      </trkpt>
      <trkpt lat="44.41122" lon="3.40779">
        <ele>936.843</ele>
        <time>2019-07-07T18:15:10Z</time>
      </trkpt>
      <trkpt lat="44.4111" lon="3.40844">
        <ele>941.137</ele>
        <time>2019-07-07T18:15:30Z</time>
      </trkpt>
      <trkpt lat="44.41039" lon="3.40951">
        <ele>946.414</ele>
        <time>2019-07-07T18:15:50Z</time>
      </trkpt>
      <trkpt lat="44.40985" lon="3.41056">
        <ele>950.553</ele>
        <time>2019-07-07T18:16:10Z</time>
      </trkpt>
      <trkpt lat="44.40959" lon="3.4108">
        <ele>949.999</ele>
        <time>2019-07-07T18:16:30Z</time>
      </trkpt>
      <trkpt lat="44.40946" lon="3.41144">
        <ele>949.717</ele>
        <time>2019-07-07T18:16:50Z</time>
      </trkpt>
      <trkpt lat="44.40933" lon="3.41227">
        <ele>944.487</ele>
        <time>2019-07-07T18:17:10Z</time>
      </trkpt>
      <trkpt lat="44.40906" lon="3.41259">
        <ele>942.015</ele>
        <time>2019-07-07T18:17:30Z</time>
      </trkpt>
      <trkpt lat="44.40902" lon="3.41343">
        <ele>939.008</ele>
        <time>2019-07-07T18:17:50Z</time>
      </trkpt>
      <trkpt lat="44.40881" lon="3.41347">
        <ele>938.755</ele>
        <time>2019-07-07T18:18:10Z</time>
      </trkpt>
    </trkseg>
  </trk>
</gpx>